createdAt,value
2019-05-02T00:00:44.227Z,10.24
2019-05-02T00:03:13.627Z,10.13
2019-05-02T00:06:24.521Z,10.04
2019-05-02T00:11:33.578Z,10.06
2019-05-02T00:14:13.926Z,10.07
2019-05-02T00:19:25.119Z,10.08
2019-05-02T00:21:54.598Z,10.02
2019-05-02T00:24:23.939Z,9.85
2019-05-02T00:26:56.218Z,9.91
2019-05-02T00:29:29.687Z,9.87
2019-05-02T00:32:01.102Z,9.85
2019-05-02T00:34:49.524Z,9.58
2019-05-02T00:37:24.387Z,9.64
2019-05-02T00:40:09.418Z,9.58
2019-05-02T00:42:38.765Z,9.69
2019-05-02T00:45:08.157Z,9.63
2019-05-02T00:47:56.870Z,9.60
2019-05-02T00:53:22.109Z,9.43
2019-05-02T00:55:51.447Z,9.40
2019-05-02T00:58:20.797Z,9.35
2019-05-02T01:01:09.237Z,9.40
2019-05-02T01:07:14.900Z,9.08
2019-05-02T01:12:32.612Z,9.20
2019-05-02T01:15:03.438Z,9.18
2019-05-02T01:17:38.532Z,9.10
2019-05-02T01:23:42.231Z,8.99
2019-05-02T01:26:11.568Z,9.08
2019-05-02T01:29:00.026Z,9.04
2019-05-02T01:31:49.861Z,9.02
2019-05-02T01:34:43.824Z,9.03
2019-05-02T01:37:32.274Z,9.02
2019-05-02T01:40:01.616Z,9.06
2019-05-02T01:42:39.589Z,9.01
2019-05-02T01:45:21.087Z,9.02
2019-05-02T01:47:50.352Z,8.93
2019-05-02T01:50:38.797Z,8.93
2019-05-02T01:53:08.134Z,8.92
2019-05-02T01:58:20.752Z,8.76
2019-05-02T02:01:07.976Z,8.67
2019-05-02T02:03:56.412Z,8.70
2019-05-02T02:06:25.748Z,8.84
2019-05-02T02:08:55.153Z,8.79
2019-05-02T02:11:28.435Z,8.89
2019-05-02T02:14:18.227Z,8.80
2019-05-02T02:16:44.521Z,8.80
2019-05-02T02:22:13.418Z,8.83
2019-05-02T02:27:38.227Z,8.81
2019-05-02T02:30:47.495Z,8.89
2019-05-02T02:33:16.886Z,8.86
2019-05-02T02:35:50.404Z,8.65
2019-05-02T02:38:36.351Z,8.74
2019-05-02T02:41:06.373Z,8.57
2019-05-02T02:46:45.415Z,8.39
2019-05-02T02:49:21.409Z,8.44
2019-05-02T02:52:06.844Z,8.46
2019-05-02T02:54:43.390Z,8.47
2019-05-02T02:57:27.965Z,8.41
2019-05-02T03:00:06.732Z,8.37
2019-05-02T03:02:35.307Z,8.33
2019-05-02T03:05:27.754Z,8.42
2019-05-02T03:08:15.783Z,8.44
2019-05-02T03:10:46.654Z,8.39
2019-05-02T03:14:06.073Z,8.39
2019-05-02T03:19:27.130Z,8.43
2019-05-02T03:22:00.844Z,8.49
2019-05-02T03:30:50.638Z,8.59
2019-05-02T03:36:53.758Z,8.36
2019-05-02T03:39:23.258Z,8.39
2019-05-02T03:44:56.028Z,8.22
2019-05-02T03:50:35.294Z,8.23
2019-05-02T03:53:09.277Z,8.26
2019-05-02T03:55:38.621Z,8.17
2019-05-02T03:58:14.321Z,8.14
2019-05-02T04:00:48.248Z,8.17
2019-05-02T04:06:21.385Z,8.11
2019-05-02T04:09:00.139Z,8.00
2019-05-02T04:11:38.956Z,7.94
2019-05-02T04:14:17.437Z,7.92
2019-05-02T04:16:55.309Z,8.02
2019-05-02T04:20:09.465Z,8.01
2019-05-02T04:22:54.096Z,8.04
2019-05-02T04:25:42.801Z,8.01
2019-05-02T04:28:14.371Z,8.22
2019-05-02T04:30:51.310Z,8.16
2019-05-02T04:33:29.059Z,8.19
2019-05-02T04:36:13.654Z,8.22
2019-05-02T04:38:47.686Z,8.15
2019-05-02T04:41:28.267Z,8.21
2019-05-02T04:43:57.829Z,8.16
2019-05-02T04:46:31.434Z,8.23
2019-05-02T04:49:09.181Z,8.18
2019-05-02T04:51:50.654Z,8.33
2019-05-02T04:54:25.830Z,8.45
2019-05-02T04:56:58.969Z,8.45
2019-05-02T04:59:39.233Z,8.37
2019-05-02T05:02:13.609Z,8.66
2019-05-02T05:04:48.630Z,8.86
2019-05-02T05:07:40.822Z,8.80
2019-05-02T05:10:09.516Z,8.93
2019-05-02T05:12:41.837Z,9.09
2019-05-02T05:15:38.339Z,9.25
2019-05-02T05:18:10.613Z,9.34
2019-05-02T05:20:52.940Z,9.40
2019-05-02T05:26:12.543Z,9.40
2019-05-02T05:28:44.413Z,9.69
2019-05-02T05:31:24.086Z,9.89
2019-05-02T05:33:58.952Z,10.06
2019-05-02T05:36:32.687Z,10.16
2019-05-02T05:39:18.431Z,10.33
2019-05-02T05:41:52.186Z,10.25
2019-05-02T05:44:39.881Z,10.45
2019-05-02T05:47:17.577Z,10.58
2019-05-02T05:49:52.193Z,10.49
2019-05-02T05:52:33.075Z,10.70
2019-05-02T05:55:08.042Z,10.65
2019-05-02T05:57:38.456Z,10.67
2019-05-02T06:03:17.760Z,10.78
2019-05-02T06:06:09.757Z,10.94
2019-05-02T06:08:42.692Z,11.12
2019-05-02T06:11:19.987Z,11.21
2019-05-02T06:13:53.999Z,11.02
2019-05-02T06:16:23.333Z,11.13
2019-05-02T06:18:52.667Z,11.23
2019-05-02T06:21:22.007Z,11.54
2019-05-02T06:23:51.335Z,11.41
2019-05-02T06:26:26.023Z,11.59
2019-05-02T06:28:55.365Z,11.75
2019-05-02T06:31:24.700Z,11.60
2019-05-02T06:34:13.121Z,11.52
2019-05-02T06:36:42.468Z,11.70
2019-05-02T06:39:11.874Z,11.92
2019-05-02T06:41:42.848Z,12.04
2019-05-02T06:47:36.047Z,12.12
2019-05-02T06:53:18.231Z,12.15
2019-05-02T06:55:47.563Z,12.37
2019-05-02T06:58:16.906Z,12.47
2019-05-02T07:00:56.777Z,12.79
2019-05-02T07:03:22.547Z,12.58
2019-05-02T07:05:52.059Z,12.81
2019-05-02T07:08:21.419Z,12.95
2019-05-02T07:10:50.737Z,12.85
2019-05-02T07:13:20.069Z,12.94
2019-05-02T07:16:10.531Z,13.27
2019-05-02T07:21:58.507Z,13.65
2019-05-02T07:24:43.511Z,13.84
2019-05-02T07:27:12.945Z,13.84
2019-05-02T07:29:42.267Z,13.83
2019-05-02T07:35:27.675Z,14.10
2019-05-02T07:38:09.260Z,14.08
2019-05-02T07:43:21.361Z,14.13
2019-05-02T07:46:08.887Z,14.18
2019-05-02T07:48:54.515Z,14.29
2019-05-02T07:51:22.651Z,14.29
2019-05-02T07:54:31.681Z,14.34
2019-05-02T07:57:02.417Z,14.72
2019-05-02T08:03:10.991Z,14.80
2019-05-02T08:05:40.334Z,14.80
2019-05-02T08:08:15.604Z,15.07
2019-05-02T08:10:44.943Z,15.24
2019-05-02T08:13:17.554Z,15.40
2019-05-02T08:15:52.391Z,15.40
2019-05-02T08:18:30.283Z,15.61
2019-05-02T08:21:04.704Z,15.89
2019-05-02T08:23:34.038Z,16.02
2019-05-02T08:26:03.369Z,15.98
2019-05-02T08:28:57.585Z,15.49
2019-05-02T08:31:30.037Z,15.62
2019-05-02T08:37:12.603Z,16.30
2019-05-02T08:39:41.936Z,16.17
2019-05-02T08:42:32.593Z,16.00
2019-05-02T08:48:27.336Z,16.94
2019-05-02T08:50:56.666Z,16.48
2019-05-02T08:53:26.014Z,16.80
2019-05-02T08:55:55.343Z,16.60
2019-05-02T08:58:24.694Z,16.57
2019-05-02T09:00:54.024Z,16.49
2019-05-02T09:03:23.357Z,16.00
2019-05-02T09:06:06.064Z,16.22
2019-05-02T09:08:35.261Z,16.01
2019-05-02T09:11:14.207Z,16.20
2019-05-02T09:14:05.624Z,16.42
2019-05-02T09:16:34.963Z,16.91
2019-05-02T09:19:26.456Z,16.97
2019-05-02T09:21:59.602Z,16.63
2019-05-02T09:24:28.938Z,16.52
2019-05-02T09:26:58.268Z,17.11
2019-05-02T09:29:47.037Z,17.33
2019-05-02T09:32:17.065Z,17.25
2019-05-02T09:34:56.725Z,17.01
2019-05-02T09:37:29.208Z,16.59
2019-05-02T09:39:58.551Z,16.58
2019-05-02T09:42:27.880Z,16.71
2019-05-02T09:44:57.216Z,17.14
2019-05-02T09:47:33.221Z,17.47
2019-05-02T09:50:29.440Z,18.10
2019-05-02T09:52:58.769Z,18.27
2019-05-02T09:55:28.391Z,18.16
2019-05-02T09:57:57.651Z,18.12
2019-05-02T10:03:29.243Z,18.19
2019-05-02T10:05:58.591Z,18.32
2019-05-02T10:08:28.065Z,18.04
2019-05-02T10:13:37.691Z,18.69
2019-05-02T10:16:07.085Z,18.53
2019-05-02T10:18:49.064Z,18.67
2019-05-02T10:21:18.394Z,18.69
2019-05-02T10:23:53.683Z,18.79
2019-05-02T10:26:20.150Z,18.91
2019-05-02T10:28:51.226Z,19.08
2019-05-02T10:31:21.824Z,19.04
2019-05-02T10:33:52.932Z,18.71
2019-05-02T10:36:23.971Z,19.32
2019-05-02T10:38:58.863Z,19.42
2019-05-02T10:41:24.515Z,19.61
2019-05-02T10:43:57.693Z,19.07
2019-05-02T10:46:27.886Z,19.41
2019-05-02T10:49:01.858Z,19.67
2019-05-02T10:51:34.510Z,19.74
2019-05-02T10:54:05.580Z,18.94
2019-05-02T10:56:34.922Z,19.02
2019-05-02T10:59:04.496Z,18.79
2019-05-02T11:01:35.616Z,18.72
2019-05-02T11:04:06.727Z,19.06
2019-05-02T11:06:37.146Z,19.19
2019-05-02T11:09:12.028Z,19.83
2019-05-02T11:11:42.519Z,19.37
2019-05-02T11:14:13.611Z,19.20
2019-05-02T11:16:44.594Z,18.97
2019-05-02T11:19:15.564Z,19.15
2019-05-02T11:21:55.381Z,19.10
2019-05-02T11:24:16.229Z,19.47
2019-05-02T11:26:45.575Z,19.10
2019-05-02T11:29:14.907Z,19.08
2019-05-02T11:31:44.460Z,19.42
2019-05-02T11:34:14.275Z,19.61
2019-05-02T11:36:43.615Z,19.31
2019-05-02T11:39:19.661Z,19.52
2019-05-02T11:41:44.123Z,19.54
2019-05-02T11:44:13.472Z,19.51
2019-05-02T11:46:46.784Z,19.72
2019-05-02T11:49:13.843Z,19.35
2019-05-02T11:51:47.183Z,18.85
2019-05-02T11:54:14.227Z,19.19
2019-05-02T11:56:48.887Z,19.66
2019-05-02T11:59:15.074Z,20.04
2019-05-02T12:01:56.765Z,19.74
2019-05-02T12:04:17.141Z,19.36
2019-05-02T12:06:50.041Z,19.36
2019-05-02T12:09:18.118Z,18.89
2019-05-02T12:11:55.033Z,19.17
2019-05-02T12:14:18.841Z,19.15
2019-05-02T12:16:48.177Z,19.33
2019-05-02T12:19:17.514Z,19.64
2019-05-02T12:21:55.246Z,19.76
2019-05-02T12:24:25.458Z,19.75
2019-05-02T12:26:54.799Z,19.70
2019-05-02T12:29:24.124Z,19.89
2019-05-02T12:31:56.371Z,19.86
2019-05-02T12:34:24.608Z,20.00
2019-05-02T12:36:53.954Z,20.09
2019-05-02T12:39:23.282Z,20.24
2019-05-02T12:41:53.606Z,19.20
2019-05-02T12:44:23.617Z,19.48
2019-05-02T12:46:52.952Z,19.41
2019-05-02T12:49:27.547Z,19.31
2019-05-02T12:51:53.322Z,19.28
2019-05-02T12:54:22.663Z,19.37
2019-05-02T12:56:52.865Z,19.40
2019-05-02T12:59:22.621Z,19.78
2019-05-02T13:01:52.086Z,19.56
2019-05-02T13:04:22.947Z,19.76
2019-05-02T13:06:53.103Z,19.25
2019-05-02T13:09:23.416Z,19.68
2019-05-02T13:12:13.175Z,19.41
2019-05-02T13:14:42.382Z,19.87
2019-05-02T13:17:12.067Z,20.11
2019-05-02T13:19:55.400Z,19.82
2019-05-02T13:22:14.148Z,19.83
2019-05-02T13:24:46.889Z,19.76
2019-05-02T13:27:17.099Z,19.90
2019-05-02T13:29:47.639Z,19.96
2019-05-02T13:32:24.699Z,19.99
2019-05-02T13:35:02.082Z,20.26
2019-05-02T13:37:31.804Z,20.42
2019-05-02T13:40:12.074Z,20.59
2019-05-02T13:42:41.879Z,20.40
2019-05-02T13:45:22.086Z,20.69
2019-05-02T13:47:51.900Z,20.89
2019-05-02T13:50:22.312Z,20.59
2019-05-02T13:52:57.370Z,20.17
2019-05-02T13:55:27.412Z,20.11
2019-05-02T13:57:56.757Z,19.87
2019-05-02T14:00:31.929Z,20.21
2019-05-02T14:03:02.818Z,20.21
2019-05-02T14:05:32.247Z,20.23
2019-05-02T14:08:18.463Z,20.25
2019-05-02T14:11:07.477Z,20.58
2019-05-02T14:13:37.293Z,19.95
2019-05-02T14:16:06.792Z,20.35
2019-05-02T14:18:36.139Z,20.52
2019-05-02T14:21:05.476Z,20.32
2019-05-02T14:23:34.808Z,20.50
2019-05-02T14:26:04.223Z,20.64
2019-05-02T14:28:36.318Z,20.56
2019-05-02T14:31:04.583Z,20.72
2019-05-02T14:33:35.583Z,20.94
2019-05-02T14:36:04.916Z,20.94
2019-05-02T14:38:34.254Z,20.61
2019-05-02T14:41:05.231Z,19.88
2019-05-02T14:43:53.336Z,19.76
2019-05-02T14:46:28.786Z,19.62
2019-05-02T14:48:55.558Z,19.04
2019-05-02T14:51:27.797Z,19.01
2019-05-02T14:53:57.514Z,19.41
2019-05-02T14:56:32.899Z,19.32
2019-05-02T14:59:02.731Z,19.65
2019-05-02T15:01:32.294Z,19.22
2019-05-02T15:04:04.102Z,19.46
2019-05-02T15:06:33.837Z,19.53
2019-05-02T15:09:04.673Z,19.65
2019-05-02T15:11:34.965Z,19.36
2019-05-02T15:14:04.593Z,19.50
2019-05-02T15:16:42.192Z,19.50
2019-05-02T15:19:05.139Z,19.66
2019-05-02T15:21:47.049Z,19.70
2019-05-02T15:24:14.369Z,19.56
2019-05-02T15:26:43.713Z,19.86
2019-05-02T15:29:19.776Z,19.83
2019-05-02T15:31:48.189Z,19.52
2019-05-02T15:34:22.722Z,19.22
2019-05-02T15:36:52.709Z,18.88
2019-05-02T15:41:53.204Z,17.35
2019-05-02T15:44:23.378Z,16.17
2019-05-02T15:46:53.585Z,14.62
2019-05-02T15:49:22.930Z,11.98
2019-05-02T15:51:52.497Z,11.98
2019-05-02T15:54:22.725Z,11.73
2019-05-02T15:57:00.633Z,11.67
2019-05-02T15:59:37.728Z,11.71
2019-05-02T16:02:07.072Z,11.61
2019-05-02T16:04:41.763Z,11.59
2019-05-02T16:07:12.134Z,11.62
2019-05-02T16:09:42.155Z,11.72
2019-05-02T16:12:12.264Z,11.70
2019-05-02T16:14:42.443Z,11.74
2019-05-02T16:17:12.647Z,11.76
2019-05-02T16:19:43.778Z,11.72
2019-05-02T16:22:14.759Z,11.86
2019-05-02T16:24:48.710Z,11.86
2019-05-02T16:27:16.490Z,12.08
2019-05-02T16:29:46.291Z,11.90
2019-05-02T16:32:17.413Z,11.82
2019-05-02T16:34:54.191Z,11.87
2019-05-02T16:37:22.659Z,11.87
2019-05-02T16:39:52.408Z,12.00
2019-05-02T16:42:22.749Z,11.91
2019-05-02T16:44:54.832Z,12.03
2019-05-02T16:47:23.391Z,12.12
2019-05-02T16:49:56.290Z,12.17
2019-05-02T16:52:23.782Z,12.05
2019-05-02T16:54:53.419Z,12.16
2019-05-02T16:57:23.871Z,12.11
2019-05-02T17:00:00.976Z,12.10
2019-05-02T17:02:24.328Z,12.16
2019-05-02T17:04:54.602Z,12.16
2019-05-02T17:07:26.064Z,12.24
2019-05-02T17:09:59.754Z,12.32
2019-05-02T17:12:31.761Z,12.21
2019-05-02T17:15:19.123Z,12.05
2019-05-02T17:17:48.472Z,12.05
2019-05-02T17:20:18.043Z,12.16
2019-05-02T17:22:50.198Z,12.12
2019-05-02T17:25:18.425Z,12.11
2019-05-02T17:27:47.792Z,12.17
2019-05-02T17:30:17.921Z,12.19
2019-05-02T17:32:47.268Z,12.18
2019-05-02T17:35:18.467Z,12.08
2019-05-02T17:37:49.110Z,12.08
2019-05-02T17:40:24.433Z,12.02
2019-05-02T17:42:57.148Z,12.04
2019-05-02T17:45:24.050Z,12.03
2019-05-02T17:47:53.321Z,12.10
2019-05-02T17:50:33.508Z,12.08
2019-05-02T17:53:04.486Z,12.08
2019-05-02T17:55:40.235Z,12.02
2019-05-02T17:58:12.528Z,12.03
2019-05-02T18:00:38.621Z,12.15
2019-05-02T18:03:08.025Z,12.04
2019-05-02T18:05:37.370Z,12.04
2019-05-02T18:08:10.891Z,11.99
2019-05-02T18:10:37.883Z,11.86
2019-05-02T18:13:07.234Z,11.91
2019-05-02T18:15:36.569Z,11.95
2019-05-02T18:18:07.850Z,11.95
2019-05-02T18:20:41.520Z,12.04
2019-05-02T18:23:08.051Z,12.00
2019-05-02T18:25:37.399Z,11.96
2019-05-02T18:28:06.845Z,12.09
2019-05-02T18:30:36.188Z,12.12
2019-05-02T18:33:07.337Z,12.06
2019-05-02T18:35:37.479Z,12.14
2019-05-02T18:38:07.981Z,12.12
2019-05-02T18:40:37.391Z,12.15
2019-05-02T18:43:06.963Z,12.10
2019-05-02T18:45:36.305Z,12.05
2019-05-02T18:48:06.917Z,12.03
2019-05-02T18:50:44.302Z,12.04
2019-05-02T18:53:11.322Z,12.08
2019-05-02T18:55:42.190Z,12.15
2019-05-02T18:58:12.826Z,12.01
2019-05-02T19:00:42.414Z,11.97
2019-05-02T19:03:16.838Z,11.97
2019-05-02T19:05:43.421Z,11.98
2019-05-02T19:08:13.002Z,11.93
2019-05-02T19:11:01.388Z,11.86
2019-05-02T19:13:13.583Z,11.94
2019-05-02T19:15:46.561Z,12.02
2019-05-02T19:18:18.236Z,12.01
2019-05-02T19:20:57.471Z,11.94
2019-05-02T19:23:25.111Z,11.99
2019-05-02T19:25:54.518Z,11.82
2019-05-02T19:28:33.600Z,11.65
2019-05-02T19:31:05.151Z,11.75
2019-05-02T19:33:31.835Z,11.72
2019-05-02T19:36:02.790Z,11.75
2019-05-02T19:38:34.767Z,11.75
2019-05-02T19:41:08.697Z,11.86
2019-05-02T19:43:35.070Z,11.81
2019-05-02T19:46:04.997Z,11.79
2019-05-02T19:48:36.874Z,11.76
2019-05-02T19:51:10.592Z,11.86
2019-05-02T19:53:36.862Z,11.85
2019-05-02T19:56:06.834Z,11.78
2019-05-02T19:58:41.453Z,11.78
2019-05-02T20:01:07.939Z,11.85
2019-05-02T20:03:37.278Z,11.86
2019-05-02T20:06:06.787Z,11.69
2019-05-02T20:08:36.177Z,11.69
2019-05-02T20:11:05.669Z,11.62
2019-05-02T20:13:35.015Z,11.47
2019-05-02T20:16:09.042Z,11.56
2019-05-02T20:18:43.870Z,11.56
2019-05-02T20:21:27.189Z,11.48
2019-05-02T20:23:51.486Z,11.51
2019-05-02T20:26:22.120Z,11.52
2019-05-02T20:28:52.794Z,11.49
2019-05-02T20:31:22.661Z,11.37
2019-05-02T20:33:52.131Z,11.42
2019-05-02T20:36:22.822Z,11.42
2019-05-02T20:38:52.655Z,11.38
2019-05-02T20:41:22.470Z,11.24
2019-05-02T20:43:51.863Z,11.25
2019-05-02T20:46:21.913Z,11.23
2019-05-02T20:48:52.581Z,11.27
2019-05-02T20:51:22.778Z,11.11
2019-05-02T20:53:52.741Z,11.13
2019-05-02T20:56:23.128Z,11.21
2019-05-02T20:58:53.502Z,11.29
2019-05-02T21:01:22.857Z,11.17
2019-05-02T21:03:52.342Z,11.16
2019-05-02T21:06:37.061Z,11.18
2019-05-02T21:08:59.464Z,11.25
2019-05-02T21:11:29.194Z,11.20
2019-05-02T21:13:58.555Z,11.20
2019-05-02T21:16:28.222Z,11.12
2019-05-02T21:18:57.627Z,11.04
2019-05-02T21:21:27.120Z,11.00
2019-05-02T21:23:56.464Z,11.17
2019-05-02T21:26:25.823Z,11.17
2019-05-02T21:28:55.161Z,11.04
2019-05-02T21:31:24.517Z,11.05
2019-05-02T21:33:53.853Z,10.99
2019-05-02T21:36:23.208Z,10.95
2019-05-02T21:38:52.560Z,11.13
2019-05-02T21:41:22.327Z,11.13
2019-05-02T21:43:51.948Z,11.07
2019-05-02T21:46:22.333Z,10.93
2019-05-02T21:48:52.630Z,10.95
2019-05-02T21:51:26.666Z,10.93
2019-05-02T21:54:02.858Z,10.81
2019-05-02T21:56:48.942Z,10.96
2019-05-02T21:59:18.286Z,10.98
2019-05-02T22:01:53.075Z,11.00
2019-05-02T22:04:22.712Z,11.09
2019-05-02T22:06:52.702Z,11.03
2019-05-02T22:09:23.055Z,11.05
2019-05-02T22:11:52.750Z,11.13
2019-05-02T22:14:22.440Z,11.05
2019-05-02T22:16:52.975Z,11.18
2019-05-02T22:19:22.538Z,11.07
2019-05-02T22:21:52.457Z,11.02
2019-05-02T22:24:42.252Z,11.04
2019-05-02T22:27:18.361Z,11.14
2019-05-02T22:29:47.720Z,11.00
2019-05-02T22:32:17.135Z,10.89
2019-05-02T22:35:26.392Z,10.89
2019-05-02T22:38:14.842Z,11.09
2019-05-02T22:43:39.321Z,11.06
2019-05-02T22:48:49.197Z,10.93
2019-05-02T22:51:18.534Z,10.95
2019-05-02T22:53:47.892Z,11.01
2019-05-02T22:56:17.241Z,11.04
2019-05-02T22:58:46.577Z,10.93
2019-05-02T23:01:15.930Z,10.83
2019-05-02T23:03:45.273Z,10.94
2019-05-02T23:06:14.627Z,10.83
2019-05-02T23:08:44.035Z,10.60
2019-05-02T23:11:13.731Z,10.64
2019-05-02T23:13:43.064Z,10.74
2019-05-02T23:16:12.421Z,10.86
2019-05-02T23:18:42.612Z,10.77
2019-05-02T23:21:22.392Z,10.63
2019-05-02T23:23:52.348Z,10.74
2019-05-02T23:29:22.841Z,10.82
2019-05-02T23:31:52.203Z,10.83
2019-05-02T23:34:23.534Z,10.88
2019-05-02T23:36:57.717Z,10.83
2019-05-02T23:39:27.055Z,10.77
2019-05-02T23:41:56.401Z,10.95
2019-05-02T23:44:26.042Z,10.84
2019-05-02T23:46:55.461Z,10.68
2019-05-02T23:49:24.810Z,10.61
2019-05-02T23:52:13.475Z,10.77
2019-05-02T23:54:50.021Z,10.87
2019-05-02T23:57:23.102Z,10.82
